• pl
  • eng

Awiacja
TAF FT 06:30 16.12.2017
  • WIND
  • SIGNIFICANT EURO
  • SIGNIFICANT
  • SIGMET
  • AIRMET
  • TAF FC
  • TAF FT
  • METAR GG30
  • METAR GG00


TAF EPBY 160530Z 1606/1706 26010KT 0500 FZFG OVC001
BECMG 1606/1608 2000 -SN BR OVC005
PROB40 TEMPO 1606/1609 1200 -SN -SNRA BR OVC003
BECMG 1608/1610 8000 BKN012
TEMPO 1610/1621 4000 -SN -SNRA BR BKN005
TEMPO 1701/1706 1200 SHSN BKN005 BKN010CB=

TAF EPGD 160530Z 1606/1706 24008KT 7000 BKN005
PROB40 1606/1608 2000 BR BKN003
BECMG 1610/1612 BKN012
PROB40 TEMPO 1610/1618 3000 -SHSN -SHRASN BKN005 BKN010CB
TEMPO 1700/1706 1200 SHSN BKN005 BKN010CB=

TAF EPKK 160530Z 1606/1706 VRB02KT 3000 BR BKN025
BECMG 1608/1610 26010KT 7000
TEMPO 1610/1706 4000 -SN BR BKN009
BECMG 1620/1622 VRB02KT
PROB40 1700/1706 1200 SN BR BKN004=

TAF EPKT 160530Z 1606/1706 VRB02KT 3000 BR BKN020
BECMG 1606/1608 33010KT 7000
TEMPO 1608/1706 4000 -SN BR BKN007
PROB40 1700/1706 1200 SN BR BKN002=

TAF EPLL 160530Z 1606/1706 27008KT 9999 OVC015
PROB30 1606/1609 3000 BR BKN007
TEMPO 1621/1706 2000 -SN BR BKN004=

TAF EPMO 160530Z 1606/1706 28006KT 3000 BR OVC004
PROB40 TEMPO 1606/1610 0600 FZFG OVC001
BECMG 1610/1612 6000 BKN007
TEMPO 1621/1703 2000 -SN -SNRA BR BKN003=

TAF EPPO 160530Z 1606/1706 24007KT 5000 BR BKN005
TEMPO 1606/1610 2000 BR OVC001
BECMG 1610/1613 SCT007 BKN014
TEMPO 1614/1620 4000 -SHRA -SHRASN BR BKN006 BKN012CB
TEMPO 1620/1706 2000 -SHSN -SHSNRA BR BKN004 BKN010CB=

TAF EPRZ 160530Z 1606/1706 32003KT 4000 -SN BR BKN017
BECMG 1606/1609 32013KT
TEMPO 1606/1612 2000 SN BR BKN007
PROB40 TEMPO 1606/1610 1200 SN BR BKN003
BECMG 1614/1616 9999 NSW
TEMPO 1616/1706 4000 -SN BR BKN009=

TAF EPSC 160530Z 1606/1706 25006KT 5000 BR BKN008
TEMPO 1606/1609 3000 -SN BR BKN003
BECMG 1608/1610 8000 BKN018
PROB40 TEMPO 1609/1614 4000 -SN BKN010
TEMPO 1615/1706 3000 -SHRASN SHSN BKN005 BKN010CB=

TAF EPWA 160530Z 1606/1706 29006KT 6000 BKN005
PROB40 TEMPO 1606/1609 1500 BR OVC002
TEMPO 1621/1706 2000 -SN -SNRA BR BKN003=

TAF EPWR 160530Z 1606/1706 26005KT 9999 SCT033
PROB40 1607/1612 4000 BR BKN009
TEMPO 1617/1706 2500 -SHSN -SHRASN BR BKN006 BKN013CB=
Awiacja.imgw.pl jest pogodowym serwisem informacyjnym
Instytutu Meteorologii i Gospodarki Wodnej Państwowego Instytutu Badawczego.
Copyright IMGW PIB 2009-2011© Wszelkie prawa zastrzeżone.